sensor_id;sensor_type;location;lat;lon;timestamp;temperature;humidity
32428;DHT22;18882;50.952;4.366;2022-07-12T00:01:20;19.60;99.90
32428;DHT22;18882;50.952;4.366;2022-07-12T00:03:46;19.40;99.90
32428;DHT22;18882;50.952;4.366;2022-07-12T00:06:12;19.30;99.90
32428;DHT22;18882;50.952;4.366;2022-07-12T00:08:38;19.30;99.90
32428;DHT22;18882;50.952;4.366;2022-07-12T00:11:05;19.20;99.90
32428;DHT22;18882;50.952;4.366;2022-07-12T00:13:30;19.20;99.90
32428;DHT22;18882;50.952;4.366;2022-07-12T00:15:57;19.10;99.90
32428;DHT22;18882;50.952;4.366;2022-07-12T00:18:23;19.00;99.90
32428;DHT22;18882;50.952;4.366;2022-07-12T00:20:48;18.90;99.90
32428;DHT22;18882;50.952;4.366;2022-07-12T00:23:14;18.90;99.90
32428;DHT22;18882;50.952;4.366;2022-07-12T00:25:40;18.80;99.90
32428;DHT22;18882;50.952;4.366;2022-07-12T00:28:07;18.70;99.90
32428;DHT22;18882;50.952;4.366;2022-07-12T00:30:33;18.60;99.90
32428;DHT22;18882;50.952;4.366;2022-07-12T00:32:59;18.50;99.90
32428;DHT22;18882;50.952;4.366;2022-07-12T00:35:24;18.40;99.90
32428;DHT22;18882;50.952;4.366;2022-07-12T00:37:50;18.40;99.90
32428;DHT22;18882;50.952;4.366;2022-07-12T00:40:17;18.40;99.90
32428;DHT22;18882;50.952;4.366;2022-07-12T00:42:42;18.40;99.90
32428;DHT22;18882;50.952;4.366;2022-07-12T00:45:09;18.50;99.90
32428;DHT22;18882;50.952;4.366;2022-07-12T00:47:37;18.70;99.90
32428;DHT22;18882;50.952;4.366;2022-07-12T00:50:18;18.70;99.90
32428;DHT22;18882;50.952;4.366;2022-07-12T00:52:47;18.70;99.90
32428;DHT22;18882;50.952;4.366;2022-07-12T00:55:14;18.70;99.90
32428;DHT22;18882;50.952;4.366;2022-07-12T00:57:41;18.50;99.90
32428;DHT22;18882;50.952;4.366;2022-07-12T01:00:17;18.20;99.90
32428;DHT22;18882;50.952;4.366;2022-07-12T01:02:44;18.20;99.90
32428;DHT22;18882;50.952;4.366;2022-07-12T01:05:11;18.20;99.90
32428;DHT22;18882;50.952;4.366;2022-07-12T01:07:37;18.20;99.90
32428;DHT22;18882;50.952;4.366;2022-07-12T01:10:05;18.30;99.90
32428;DHT22;18882;50.952;4.366;2022-07-12T01:12:31;18.30;99.90
32428;DHT22;18882;50.952;4.366;2022-07-12T01:14:58;18.30;99.90
32428;DHT22;18882;50.952;4.366;2022-07-12T01:17:26;18.20;99.90
32428;DHT22;18882;50.952;4.366;2022-07-12T01:19:56;18.20;99.90
32428;DHT22;18882;50.952;4.366;2022-07-12T01:22:31;18.30;99.90
32428;DHT22;18882;50.952;4.366;2022-07-12T01:24:57;18.30;99.90
32428;DHT22;18882;50.952;4.366;2022-07-12T01:27:23;18.20;99.90
32428;DHT22;18882;50.952;4.366;2022-07-12T01:29:49;18.20;99.90
32428;DHT22;18882;50.952;4.366;2022-07-12T01:32:15;18.10;99.90
32428;DHT22;18882;50.952;4.366;2022-07-12T01:34:58;18.10;99.90
32428;DHT22;18882;50.952;4.366;2022-07-12T01:37:28;18.10;99.90
32428;DHT22;18882;50.952;4.366;2022-07-12T01:39:55;18.00;99.90
32428;DHT22;18882;50.952;4.366;2022-07-12T01:42:22;18.00;99.90
32428;DHT22;18882;50.952;4.366;2022-07-12T01:44:50;17.90;99.90
32428;DHT22;18882;50.952;4.366;2022-07-12T01:47:20;18.00;99.90
32428;DHT22;18882;50.952;4.366;2022-07-12T01:49:46;18.00;99.90
32428;DHT22;18882;50.952;4.366;2022-07-12T01:52:12;17.90;99.90
32428;DHT22;18882;50.952;4.366;2022-07-12T01:54:38;17.80;99.90
32428;DHT22;18882;50.952;4.366;2022-07-12T01:57:05;17.80;99.90
32428;DHT22;18882;50.952;4.366;2022-07-12T01:59:31;17.70;99.90
32428;DHT22;18882;50.952;4.366;2022-07-12T02:01:57;17.70;99.90
32428;DHT22;18882;50.952;4.366;2022-07-12T02:04:23;17.70;99.90
32428;DHT22;18882;50.952;4.366;2022-07-12T02:06:50;17.70;99.90
32428;DHT22;18882;50.952;4.366;2022-07-12T02:09:16;17.80;99.90
32428;DHT22;18882;50.952;4.366;2022-07-12T02:11:43;17.70;99.90
32428;DHT22;18882;50.952;4.366;2022-07-12T02:14:09;17.80;99.90
32428;DHT22;18882;50.952;4.366;2022-07-12T02:16:35;17.80;99.90
32428;DHT22;18882;50.952;4.366;2022-07-12T02:19:01;17.70;99.90
32428;DHT22;18882;50.952;4.366;2022-07-12T02:21:27;17.70;99.90
32428;DHT22;18882;50.952;4.366;2022-07-12T02:23:53;17.80;99.90
32428;DHT22;18882;50.952;4.366;2022-07-12T02:26:19;17.80;99.90
32428;DHT22;18882;50.952;4.366;2022-07-12T02:28:45;17.80;99.90
32428;DHT22;18882;50.952;4.366;2022-07-12T02:31:11;17.80;99.90
32428;DHT22;18882;50.952;4.366;2022-07-12T02:33:36;17.80;99.90
32428;DHT22;18882;50.952;4.366;2022-07-12T02:36:02;17.80;99.90
32428;DHT22;18882;50.952;4.366;2022-07-12T02:38:28;17.80;99.90
32428;DHT22;18882;50.952;4.366;2022-07-12T02:40:54;17.70;99.90
32428;DHT22;18882;50.952;4.366;2022-07-12T02:43:24;17.70;99.90
32428;DHT22;18882;50.952;4.366;2022-07-12T02:45:51;17.70;99.90
32428;DHT22;18882;50.952;4.366;2022-07-12T02:48:17;17.50;99.90
32428;DHT22;18882;50.952;4.366;2022-07-12T02:50:43;17.40;99.90
32428;DHT22;18882;50.952;4.366;2022-07-12T02:53:10;17.40;99.90
32428;DHT22;18882;50.952;4.366;2022-07-12T02:55:36;17.30;99.90
32428;DHT22;18882;50.952;4.366;2022-07-12T02:58:03;17.30;99.90
32428;DHT22;18882;50.952;4.366;2022-07-12T03:00:29;17.30;99.90
32428;DHT22;18882;50.952;4.366;2022-07-12T03:02:55;17.10;99.90
32428;DHT22;18882;50.952;4.366;2022-07-12T03:05:20;16.80;99.90
32428;DHT22;18882;50.952;4.366;2022-07-12T03:07:46;16.90;99.90
32428;DHT22;18882;50.952;4.366;2022-07-12T03:10:12;16.90;99.90
32428;DHT22;18882;50.952;4.366;2022-07-12T03:12:38;16.70;99.90
32428;DHT22;18882;50.952;4.366;2022-07-12T03:15:05;16.60;99.90
32428;DHT22;18882;50.952;4.366;2022-07-12T03:17:34;16.80;99.90
32428;DHT22;18882;50.952;4.366;2022-07-12T03:20:00;16.90;99.90
32428;DHT22;18882;50.952;4.366;2022-07-12T03:22:26;16.90;99.90
32428;DHT22;18882;50.952;4.366;2022-07-12T03:24:52;16.90;99.90
32428;DHT22;18882;50.952;4.366;2022-07-12T03:27:18;16.90;99.90
32428;DHT22;18882;50.952;4.366;2022-07-12T03:29:43;16.80;99.90
32428;DHT22;18882;50.952;4.366;2022-07-12T03:32:09;16.80;99.90
32428;DHT22;18882;50.952;4.366;2022-07-12T03:34:36;16.80;99.90
32428;DHT22;18882;50.952;4.366;2022-07-12T03:37:02;16.80;99.90
32428;DHT22;18882;50.952;4.366;2022-07-12T03:39:30;16.80;99.90
32428;DHT22;18882;50.952;4.366;2022-07-12T03:41:55;16.60;99.90
32428;DHT22;18882;50.952;4.366;2022-07-12T03:44:21;16.60;99.90
32428;DHT22;18882;50.952;4.366;2022-07-12T03:46:47;16.50;99.90
32428;DHT22;18882;50.952;4.366;2022-07-12T03:49:13;16.40;99.90
32428;DHT22;18882;50.952;4.366;2022-07-12T03:51:39;16.40;99.90
32428;DHT22;18882;50.952;4.366;2022-07-12T03:54:06;16.40;99.90
32428;DHT22;18882;50.952;4.366;2022-07-12T03:56:34;16.40;99.90
32428;DHT22;18882;50.952;4.366;2022-07-12T03:59:18;16.50;99.90
32428;DHT22;18882;50.952;4.366;2022-07-12T04:01:43;16.50;99.90
32428;DHT22;18882;50.952;4.366;2022-07-12T04:04:09;16.50;99.90
32428;DHT22;18882;50.952;4.366;2022-07-12T04:06:35;16.50;99.90
32428;DHT22;18882;50.952;4.366;2022-07-12T04:09:00;16.60;99.90
32428;DHT22;18882;50.952;4.366;2022-07-12T04:11:26;16.60;99.90
32428;DHT22;18882;50.952;4.366;2022-07-12T04:13:52;16.70;99.90
32428;DHT22;18882;50.952;4.366;2022-07-12T04:16:17;16.80;99.90
32428;DHT22;18882;50.952;4.366;2022-07-12T04:18:43;16.80;99.90
32428;DHT22;18882;50.952;4.366;2022-07-12T04:21:09;16.90;99.90
32428;DHT22;18882;50.952;4.366;2022-07-12T04:23:34;17.00;99.90
32428;DHT22;18882;50.952;4.366;2022-07-12T04:26:00;17.00;99.90
32428;DHT22;18882;50.952;4.366;2022-07-12T04:28:25;17.00;99.90
32428;DHT22;18882;50.952;4.366;2022-07-12T04:30:51;16.90;99.90
32428;DHT22;18882;50.952;4.366;2022-07-12T04:33:17;17.00;99.90
32428;DHT22;18882;50.952;4.366;2022-07-12T04:35:42;17.00;99.90
32428;DHT22;18882;50.952;4.366;2022-07-12T04:38:08;17.00;99.90
32428;DHT22;18882;50.952;4.366;2022-07-12T04:40:34;17.00;99.90
32428;DHT22;18882;50.952;4.366;2022-07-12T04:42:59;17.00;99.90
32428;DHT22;18882;50.952;4.366;2022-07-12T04:45:25;17.10;99.90
32428;DHT22;18882;50.952;4.366;2022-07-12T04:47:51;17.20;99.90
32428;DHT22;18882;50.952;4.366;2022-07-12T04:50:17;17.30;99.90
32428;DHT22;18882;50.952;4.366;2022-07-12T04:52:42;17.40;99.90
32428;DHT22;18882;50.952;4.366;2022-07-12T04:55:09;17.50;99.90
32428;DHT22;18882;50.952;4.366;2022-07-12T04:57:35;17.70;99.90
32428;DHT22;18882;50.952;4.366;2022-07-12T05:00:00;17.80;99.90
32428;DHT22;18882;50.952;4.366;2022-07-12T05:02:26;17.80;99.90
32428;DHT22;18882;50.952;4.366;2022-07-12T05:04:52;17.90;99.90
32428;DHT22;18882;50.952;4.366;2022-07-12T05:07:18;17.80;99.90
32428;DHT22;18882;50.952;4.366;2022-07-12T05:09:43;17.90;99.90
32428;DHT22;18882;50.952;4.366;2022-07-12T05:12:09;17.90;99.90
32428;DHT22;18882;50.952;4.366;2022-07-12T05:14:35;18.00;99.90
32428;DHT22;18882;50.952;4.366;2022-07-12T05:17:00;17.90;99.90
32428;DHT22;18882;50.952;4.366;2022-07-12T05:19:26;18.00;99.90
32428;DHT22;18882;50.952;4.366;2022-07-12T05:21:52;18.20;99.90
32428;DHT22;18882;50.952;4.366;2022-07-12T05:24:17;18.30;99.90
32428;DHT22;18882;50.952;4.366;2022-07-12T05:26:43;18.40;99.90
32428;DHT22;18882;50.952;4.366;2022-07-12T05:29:08;18.50;99.90
32428;DHT22;18882;50.952;4.366;2022-07-12T05:31:34;18.60;99.90
32428;DHT22;18882;50.952;4.366;2022-07-12T05:34:01;18.80;99.90
32428;DHT22;18882;50.952;4.366;2022-07-12T05:36:26;18.90;99.90
32428;DHT22;18882;50.952;4.366;2022-07-12T05:38:52;18.90;99.90
32428;DHT22;18882;50.952;4.366;2022-07-12T05:41:18;18.80;99.90
32428;DHT22;18882;50.952;4.366;2022-07-12T05:43:44;18.80;99.90
32428;DHT22;18882;50.952;4.366;2022-07-12T05:46:09;18.80;99.90
32428;DHT22;18882;50.952;4.366;2022-07-12T05:48:36;18.70;99.90
32428;DHT22;18882;50.952;4.366;2022-07-12T05:51:02;18.80;99.90
32428;DHT22;18882;50.952;4.366;2022-07-12T05:53:46;18.80;99.90
32428;DHT22;18882;50.952;4.366;2022-07-12T05:56:12;19.00;99.90
32428;DHT22;18882;50.952;4.366;2022-07-12T05:58:38;19.20;99.90
32428;DHT22;18882;50.952;4.366;2022-07-12T06:01:03;19.00;99.90
32428;DHT22;18882;50.952;4.366;2022-07-12T06:03:29;18.70;99.90
32428;DHT22;18882;50.952;4.366;2022-07-12T06:05:55;18.50;99.90
32428;DHT22;18882;50.952;4.366;2022-07-12T06:08:20;18.50;99.90
32428;DHT22;18882;50.952;4.366;2022-07-12T06:10:46;18.50;99.90
32428;DHT22;18882;50.952;4.366;2022-07-12T06:13:12;18.70;99.90
32428;DHT22;18882;50.952;4.366;2022-07-12T06:15:37;19.10;99.90
32428;DHT22;18882;50.952;4.366;2022-07-12T06:18:03;19.20;99.90
32428;DHT22;18882;50.952;4.366;2022-07-12T06:20:29;19.70;99.90
32428;DHT22;18882;50.952;4.366;2022-07-12T06:22:55;19.80;99.90
32428;DHT22;18882;50.952;4.366;2022-07-12T06:25:21;19.40;99.90
32428;DHT22;18882;50.952;4.366;2022-07-12T06:27:47;19.20;99.90
32428;DHT22;18882;50.952;4.366;2022-07-12T06:30:16;19.00;99.90
32428;DHT22;18882;50.952;4.366;2022-07-12T06:32:42;19.10;99.90
32428;DHT22;18882;50.952;4.366;2022-07-12T06:35:08;19.20;99.90
32428;DHT22;18882;50.952;4.366;2022-07-12T06:37:34;19.00;99.90
32428;DHT22;18882;50.952;4.366;2022-07-12T06:39:59;19.00;99.90
32428;DHT22;18882;50.952;4.366;2022-07-12T06:42:25;19.00;99.90
32428;DHT22;18882;50.952;4.366;2022-07-12T06:44:51;19.10;99.90
32428;DHT22;18882;50.952;4.366;2022-07-12T06:47:16;19.20;99.90
32428;DHT22;18882;50.952;4.366;2022-07-12T06:49:42;19.40;99.90
32428;DHT22;18882;50.952;4.366;2022-07-12T06:52:08;19.60;99.90
32428;DHT22;18882;50.952;4.366;2022-07-12T06:54:33;19.50;99.90
32428;DHT22;18882;50.952;4.366;2022-07-12T06:56:59;19.70;99.90
32428;DHT22;18882;50.952;4.366;2022-07-12T06:59:25;19.80;99.90
32428;DHT22;18882;50.952;4.366;2022-07-12T07:01:51;20.20;99.90
32428;DHT22;18882;50.952;4.366;2022-07-12T07:04:17;20.60;99.90
32428;DHT22;18882;50.952;4.366;2022-07-12T07:06:43;21.00;99.90
32428;DHT22;18882;50.952;4.366;2022-07-12T07:09:09;21.30;99.90
32428;DHT22;18882;50.952;4.366;2022-07-12T07:11:35;21.50;99.90
32428;DHT22;18882;50.952;4.366;2022-07-12T07:14:02;21.80;99.90
32428;DHT22;18882;50.952;4.366;2022-07-12T07:16:28;22.00;99.90
32428;DHT22;18882;50.952;4.366;2022-07-12T07:18:54;22.10;99.90
32428;DHT22;18882;50.952;4.366;2022-07-12T07:21:19;22.30;99.90
32428;DHT22;18882;50.952;4.366;2022-07-12T07:23:45;22.40;99.90
32428;DHT22;18882;50.952;4.366;2022-07-12T07:26:11;22.50;99.90
32428;DHT22;18882;50.952;4.366;2022-07-12T07:28:37;22.60;99.90
32428;DHT22;18882;50.952;4.366;2022-07-12T07:31:22;22.40;99.90
32428;DHT22;18882;50.952;4.366;2022-07-12T07:33:48;22.60;99.90
32428;DHT22;18882;50.952;4.366;2022-07-12T07:36:14;22.70;99.90
32428;DHT22;18882;50.952;4.366;2022-07-12T07:38:39;22.90;99.90
32428;DHT22;18882;50.952;4.366;2022-07-12T07:41:05;23.10;99.90
32428;DHT22;18882;50.952;4.366;2022-07-12T07:43:31;23.20;99.90
32428;DHT22;18882;50.952;4.366;2022-07-12T07:45:56;23.30;99.90
32428;DHT22;18882;50.952;4.366;2022-07-12T07:48:22;23.50;99.90
32428;DHT22;18882;50.952;4.366;2022-07-12T07:50:48;23.70;99.90
32428;DHT22;18882;50.952;4.366;2022-07-12T07:53:13;23.70;99.90
32428;DHT22;18882;50.952;4.366;2022-07-12T07:55:40;23.70;99.90
32428;DHT22;18882;50.952;4.366;2022-07-12T07:58:05;23.80;99.90
32428;DHT22;18882;50.952;4.366;2022-07-12T08:00:31;23.90;99.90
32428;DHT22;18882;50.952;4.366;2022-07-12T08:02:57;23.60;99.90
32428;DHT22;18882;50.952;4.366;2022-07-12T08:05:23;23.10;99.90
32428;DHT22;18882;50.952;4.366;2022-07-12T08:07:49;23.10;99.90
32428;DHT22;18882;50.952;4.366;2022-07-12T08:10:14;23.50;99.90
32428;DHT22;18882;50.952;4.366;2022-07-12T08:12:40;23.80;99.90
32428;DHT22;18882;50.952;4.366;2022-07-12T08:15:06;24.10;99.90
32428;DHT22;18882;50.952;4.366;2022-07-12T08:17:32;23.70;99.90
32428;DHT22;18882;50.952;4.366;2022-07-12T08:19:58;23.90;99.90
32428;DHT22;18882;50.952;4.366;2022-07-12T08:22:23;24.30;99.90
32428;DHT22;18882;50.952;4.366;2022-07-12T08:24:49;24.60;99.90
32428;DHT22;18882;50.952;4.366;2022-07-12T08:27:15;24.80;99.90
32428;DHT22;18882;50.952;4.366;2022-07-12T08:29:41;24.90;99.90
32428;DHT22;18882;50.952;4.366;2022-07-12T08:32:07;24.80;99.90
32428;DHT22;18882;50.952;4.366;2022-07-12T08:34:34;24.80;99.90
32428;DHT22;18882;50.952;4.366;2022-07-12T08:37:00;24.80;99.90
32428;DHT22;18882;50.952;4.366;2022-07-12T08:39:25;24.70;99.90
32428;DHT22;18882;50.952;4.366;2022-07-12T08:41:51;24.50;99.90
32428;DHT22;18882;50.952;4.366;2022-07-12T08:44:17;24.80;99.90
32428;DHT22;18882;50.952;4.366;2022-07-12T08:46:42;24.90;99.90
32428;DHT22;18882;50.952;4.366;2022-07-12T08:49:08;24.90;99.90
32428;DHT22;18882;50.952;4.366;2022-07-12T08:51:34;24.90;99.90
32428;DHT22;18882;50.952;4.366;2022-07-12T08:54:08;24.70;99.90
32428;DHT22;18882;50.952;4.366;2022-07-12T08:56:41;24.10;99.90
32428;DHT22;18882;50.952;4.366;2022-07-12T08:59:13;23.90;99.90
32428;DHT22;18882;50.952;4.366;2022-07-12T09:01:46;24.30;99.90
32428;DHT22;18882;50.952;4.366;2022-07-12T09:04:14;24.50;99.90
32428;DHT22;18882;50.952;4.366;2022-07-12T09:06:40;24.70;99.90
32428;DHT22;18882;50.952;4.366;2022-07-12T09:09:06;24.40;99.90
32428;DHT22;18882;50.952;4.366;2022-07-12T09:11:38;24.40;99.90
32428;DHT22;18882;50.952;4.366;2022-07-12T09:14:04;24.80;99.90
32428;DHT22;18882;50.952;4.366;2022-07-12T09:16:30;25.10;99.90
32428;DHT22;18882;50.952;4.366;2022-07-12T09:19:13;25.50;99.90
32428;DHT22;18882;50.952;4.366;2022-07-12T09:21:48;25.60;99.90
32428;DHT22;18882;50.952;4.366;2022-07-12T09:24:15;25.80;99.90
32428;DHT22;18882;50.952;4.366;2022-07-12T09:26:41;26.00;99.90
32428;DHT22;18882;50.952;4.366;2022-07-12T09:29:07;26.00;99.90
32428;DHT22;18882;50.952;4.366;2022-07-12T09:31:49;26.30;99.90
32428;DHT22;18882;50.952;4.366;2022-07-12T09:34:34;26.40;99.90
32428;DHT22;18882;50.952;4.366;2022-07-12T09:37:19;25.80;99.90
32428;DHT22;18882;50.952;4.366;2022-07-12T09:39:46;25.70;99.90
32428;DHT22;18882;50.952;4.366;2022-07-12T09:42:13;25.90;99.90
32428;DHT22;18882;50.952;4.366;2022-07-12T09:44:40;25.60;99.90
32428;DHT22;18882;50.952;4.366;2022-07-12T09:47:13;26.00;99.90
32428;DHT22;18882;50.952;4.366;2022-07-12T09:49:42;26.50;99.90
32428;DHT22;18882;50.952;4.366;2022-07-12T09:52:20;26.60;99.90
32428;DHT22;18882;50.952;4.366;2022-07-12T09:54:49;27.10;99.90
32428;DHT22;18882;50.952;4.366;2022-07-12T09:57:32;27.20;99.90
32428;DHT22;18882;50.952;4.366;2022-07-12T09:59:59;27.90;99.90
32428;DHT22;18882;50.952;4.366;2022-07-12T10:02:26;27.80;99.90
32428;DHT22;18882;50.952;4.366;2022-07-12T10:04:52;27.80;99.90
32428;DHT22;18882;50.952;4.366;2022-07-12T10:07:19;27.90;99.90
32428;DHT22;18882;50.952;4.366;2022-07-12T10:09:46;28.40;99.90
32428;DHT22;18882;50.952;4.366;2022-07-12T10:12:16;28.80;99.90
32428;DHT22;18882;50.952;4.366;2022-07-12T10:14:42;28.20;99.90
32428;DHT22;18882;50.952;4.366;2022-07-12T10:17:09;26.90;99.90
32428;DHT22;18882;50.952;4.366;2022-07-12T10:19:36;26.70;99.90
32428;DHT22;18882;50.952;4.366;2022-07-12T10:22:07;27.40;99.90
32428;DHT22;18882;50.952;4.366;2022-07-12T10:29:43;30.60;99.90
32428;DHT22;18882;50.952;4.366;2022-07-12T10:32:34;31.40;99.90
32428;DHT22;18882;50.952;4.366;2022-07-12T10:35:06;32.00;99.50
32428;DHT22;18882;50.952;4.366;2022-07-12T10:37:36;30.60;99.90
32428;DHT22;18882;50.952;4.366;2022-07-12T10:40:21;28.80;99.90
32428;DHT22;18882;50.952;4.366;2022-07-12T10:45:42;29.40;99.90
32428;DHT22;18882;50.952;4.366;2022-07-12T10:58:36;30.50;99.90
32428;DHT22;18882;50.952;4.366;2022-07-12T11:01:04;30.50;99.90
32428;DHT22;18882;50.952;4.366;2022-07-12T11:03:31;30.40;99.90
32428;DHT22;18882;50.952;4.366;2022-07-12T11:06:06;30.20;99.90
32428;DHT22;18882;50.952;4.366;2022-07-12T11:08:49;30.00;99.90
32428;DHT22;18882;50.952;4.366;2022-07-12T11:11:15;29.90;99.90
32428;DHT22;18882;50.952;4.366;2022-07-12T11:13:41;29.90;99.90
32428;DHT22;18882;50.952;4.366;2022-07-12T11:16:07;29.10;99.90
32428;DHT22;18882;50.952;4.366;2022-07-12T11:18:34;27.60;99.90
32428;DHT22;18882;50.952;4.366;2022-07-12T11:21:01;27.10;99.90
32428;DHT22;18882;50.952;4.366;2022-07-12T11:23:28;27.40;99.90
32428;DHT22;18882;50.952;4.366;2022-07-12T11:25:55;27.80;99.90
32428;DHT22;18882;50.952;4.366;2022-07-12T11:28:24;28.20;99.90
32428;DHT22;18882;50.952;4.366;2022-07-12T11:30:51;27.80;99.90
32428;DHT22;18882;50.952;4.366;2022-07-12T11:33:17;27.90;99.90
32428;DHT22;18882;50.952;4.366;2022-07-12T11:35:46;27.70;99.90
32428;DHT22;18882;50.952;4.366;2022-07-12T11:38:13;27.90;99.90
32428;DHT22;18882;50.952;4.366;2022-07-12T11:40:59;28.00;99.90
32428;DHT22;18882;50.952;4.366;2022-07-12T11:43:26;28.00;99.90
32428;DHT22;18882;50.952;4.366;2022-07-12T11:45:53;28.30;99.90
32428;DHT22;18882;50.952;4.366;2022-07-12T11:48:19;28.00;99.90
32428;DHT22;18882;50.952;4.366;2022-07-12T11:50:45;28.10;99.90
32428;DHT22;18882;50.952;4.366;2022-07-12T11:55:46;28.20;99.90
32428;DHT22;18882;50.952;4.366;2022-07-12T11:58:16;28.40;99.90
32428;DHT22;18882;50.952;4.366;2022-07-12T12:00:43;28.60;99.90
32428;DHT22;18882;50.952;4.366;2022-07-12T12:03:09;28.90;99.90
32428;DHT22;18882;50.952;4.366;2022-07-12T12:05:35;29.10;99.90
32428;DHT22;18882;50.952;4.366;2022-07-12T12:08:03;29.30;99.90
32428;DHT22;18882;50.952;4.366;2022-07-12T12:10:28;29.40;99.90
32428;DHT22;18882;50.952;4.366;2022-07-12T12:12:56;29.50;99.90
32428;DHT22;18882;50.952;4.366;2022-07-12T12:15:33;29.40;99.90
32428;DHT22;18882;50.952;4.366;2022-07-12T12:18:03;29.20;99.90
32428;DHT22;18882;50.952;4.366;2022-07-12T12:20:30;29.30;99.90
32428;DHT22;18882;50.952;4.366;2022-07-12T12:22:58;29.50;99.80
32428;DHT22;18882;50.952;4.366;2022-07-12T12:25:25;29.60;98.90
32428;DHT22;18882;50.952;4.366;2022-07-12T12:27:55;29.70;99.10
32428;DHT22;18882;50.952;4.366;2022-07-12T12:30:22;29.70;98.40
32428;DHT22;18882;50.952;4.366;2022-07-12T12:32:52;29.80;96.90
32428;DHT22;18882;50.952;4.366;2022-07-12T12:35:20;29.80;96.90
32428;DHT22;18882;50.952;4.366;2022-07-12T12:37:56;29.80;96.80
32428;DHT22;18882;50.952;4.366;2022-07-12T12:40:25;29.90;98.60
32428;DHT22;18882;50.952;4.366;2022-07-12T12:42:52;29.90;98.10
32428;DHT22;18882;50.952;4.366;2022-07-12T12:45:22;29.90;98.00
32428;DHT22;18882;50.952;4.366;2022-07-12T12:48:03;30.10;98.70
32428;DHT22;18882;50.952;4.366;2022-07-12T12:50:44;30.40;97.90
32428;DHT22;18882;50.952;4.366;2022-07-12T12:55:37;30.50;97.00
32428;DHT22;18882;50.952;4.366;2022-07-12T12:58:04;30.50;97.90
32428;DHT22;18882;50.952;4.366;2022-07-12T13:00:30;30.60;97.80
32428;DHT22;18882;50.952;4.366;2022-07-12T13:02:57;30.60;97.80
32428;DHT22;18882;50.952;4.366;2022-07-12T13:05:25;30.70;98.30
32428;DHT22;18882;50.952;4.366;2022-07-12T13:07:51;30.80;97.60
32428;DHT22;18882;50.952;4.366;2022-07-12T13:10:17;29.90;96.80
32428;DHT22;18882;50.952;4.366;2022-07-12T13:12:43;29.70;98.10
32428;DHT22;18882;50.952;4.366;2022-07-12T13:15:10;30.00;98.20
32428;DHT22;18882;50.952;4.366;2022-07-12T13:17:36;29.70;99.20
32428;DHT22;18882;50.952;4.366;2022-07-12T13:20:02;30.00;98.70
32428;DHT22;18882;50.952;4.366;2022-07-12T13:22:28;30.20;99.10
32428;DHT22;18882;50.952;4.366;2022-07-12T13:24:54;30.20;98.60
32428;DHT22;18882;50.952;4.366;2022-07-12T13:27:20;30.40;99.40
32428;DHT22;18882;50.952;4.366;2022-07-12T13:29:46;30.60;98.60
32428;DHT22;18882;50.952;4.366;2022-07-12T13:32:12;30.70;98.70
32428;DHT22;18882;50.952;4.366;2022-07-12T13:34:38;30.70;98.10
32428;DHT22;18882;50.952;4.366;2022-07-12T13:37:04;30.70;98.50
32428;DHT22;18882;50.952;4.366;2022-07-12T13:39:30;30.80;97.80
32428;DHT22;18882;50.952;4.366;2022-07-12T13:42:14;30.80;98.10
32428;DHT22;18882;50.952;4.366;2022-07-12T13:44:42;30.90;96.50
32428;DHT22;18882;50.952;4.366;2022-07-12T13:47:08;30.60;97.20
32428;DHT22;18882;50.952;4.366;2022-07-12T13:49:34;30.60;97.20
32428;DHT22;18882;50.952;4.366;2022-07-12T13:51:59;30.60;97.00
32428;DHT22;18882;50.952;4.366;2022-07-12T13:54:27;30.70;97.50
32428;DHT22;18882;50.952;4.366;2022-07-12T13:56:53;30.90;97.40
32428;DHT22;18882;50.952;4.366;2022-07-12T13:59:19;31.10;97.60
32428;DHT22;18882;50.952;4.366;2022-07-12T14:01:45;31.00;95.70
32428;DHT22;18882;50.952;4.366;2022-07-12T14:04:10;30.60;96.00
32428;DHT22;18882;50.952;4.366;2022-07-12T14:06:37;30.30;95.70
32428;DHT22;18882;50.952;4.366;2022-07-12T14:09:02;30.20;94.90
32428;DHT22;18882;50.952;4.366;2022-07-12T14:11:28;30.30;96.00
32428;DHT22;18882;50.952;4.366;2022-07-12T14:13:53;30.60;96.40
32428;DHT22;18882;50.952;4.366;2022-07-12T14:16:19;30.60;94.40
32428;DHT22;18882;50.952;4.366;2022-07-12T14:18:46;30.70;94.70
32428;DHT22;18882;50.952;4.366;2022-07-12T14:21:12;30.90;94.90
32428;DHT22;18882;50.952;4.366;2022-07-12T14:23:38;31.20;93.30
32428;DHT22;18882;50.952;4.366;2022-07-12T14:26:04;31.10;93.00
32428;DHT22;18882;50.952;4.366;2022-07-12T14:28:30;31.20;93.10
32428;DHT22;18882;50.952;4.366;2022-07-12T14:30:56;31.30;92.40
32428;DHT22;18882;50.952;4.366;2022-07-12T14:33:22;31.40;93.40
32428;DHT22;18882;50.952;4.366;2022-07-12T14:35:48;31.40;92.60
32428;DHT22;18882;50.952;4.366;2022-07-12T14:38:14;31.30;89.00
32428;DHT22;18882;50.952;4.366;2022-07-12T14:40:41;30.90;90.10
32428;DHT22;18882;50.952;4.366;2022-07-12T14:43:06;30.60;91.30
32428;DHT22;18882;50.952;4.366;2022-07-12T14:45:32;30.50;93.00
32428;DHT22;18882;50.952;4.366;2022-07-12T14:47:57;30.80;92.50
32428;DHT22;18882;50.952;4.366;2022-07-12T14:50:23;31.10;92.90
32428;DHT22;18882;50.952;4.366;2022-07-12T14:52:49;31.30;90.90
32428;DHT22;18882;50.952;4.366;2022-07-12T14:55:14;30.70;91.90
32428;DHT22;18882;50.952;4.366;2022-07-12T14:57:40;30.90;91.30
32428;DHT22;18882;50.952;4.366;2022-07-12T15:00:09;31.10;91.80
32428;DHT22;18882;50.952;4.366;2022-07-12T15:02:36;31.40;89.80
32428;DHT22;18882;50.952;4.366;2022-07-12T15:05:02;31.50;90.50
32428;DHT22;18882;50.952;4.366;2022-07-12T15:07:31;31.70;90.20
32428;DHT22;18882;50.952;4.366;2022-07-12T15:09:56;31.90;90.70
32428;DHT22;18882;50.952;4.366;2022-07-12T15:12:26;32.10;90.40
32428;DHT22;18882;50.952;4.366;2022-07-12T15:14:52;32.20;86.50
32428;DHT22;18882;50.952;4.366;2022-07-12T15:17:17;32.40;89.50
32428;DHT22;18882;50.952;4.366;2022-07-12T15:19:45;32.50;87.10
32428;DHT22;18882;50.952;4.366;2022-07-12T15:22:11;32.50;88.80
32428;DHT22;18882;50.952;4.366;2022-07-12T15:24:40;32.40;85.40
32428;DHT22;18882;50.952;4.366;2022-07-12T15:27:06;32.60;86.50
32428;DHT22;18882;50.952;4.366;2022-07-12T15:29:34;32.20;86.40
32428;DHT22;18882;50.952;4.366;2022-07-12T15:32:03;32.20;88.90
32428;DHT22;18882;50.952;4.366;2022-07-12T15:34:29;32.40;87.80
32428;DHT22;18882;50.952;4.366;2022-07-12T15:36:55;32.60;86.30
32428;DHT22;18882;50.952;4.366;2022-07-12T15:39:21;32.70;87.00
32428;DHT22;18882;50.952;4.366;2022-07-12T15:41:48;32.70;85.80
32428;DHT22;18882;50.952;4.366;2022-07-12T15:44:13;32.70;86.00
32428;DHT22;18882;50.952;4.366;2022-07-12T15:46:39;32.80;84.90
32428;DHT22;18882;50.952;4.366;2022-07-12T15:49:06;32.80;82.70
32428;DHT22;18882;50.952;4.366;2022-07-12T15:51:33;32.70;84.00
32428;DHT22;18882;50.952;4.366;2022-07-12T15:54:17;32.70;84.80